Hejiang, China
Current Conditions -  °F | °C
As of 4:00 PM on Thursday 23 Oct 2014 (Local Time) from ZUCK Reporting Station
Clear Clear  
Wind Chill: 68°   Ceiling: Unl
Heat Index: 68°   Visibility: 5mi
Dew Point: 61°   Wind: 4mph
Humidity: 78%   Direction: 190°S
Pressure: 30.06"   Gusts: NA
Location:  28.83°N, 105.77°E
Report Text: ZUCK 230800Z 19002MPS 160V230 8000 NSC 20/16 Q1018 NOSIG
Loading
Personal Weather Stations






























Interactive Weather Map
Tropical Storm Tracking
New forecast layout! Learn more

10-Day Weather Forecast

Advertisements
Track Severe Weather on mobile